Time;durP1;ratioP1;P1;durP2;ratioP2;P2;SDS_P1;SDS_P2;PMS_P1;PMS_P2;Temp;Humidity;BMP_temperature;BMP_pressure;BME280_temperature;BME280_humidity;BME280_pressure;Samples;Min_cycle;Max_cycle;Signal;HPM_P1;HPM_P2
2023/01/23 00:02:16;;;;;;;0.40;0.40;;;-0.10;94.30;;;;;;5054485;28;20166;-73
2023/01/23 00:04:42;;;;;;;0.30;0.30;;;0.00;94.40;;;;;;5054565;28;20170;-71
2023/01/23 00:07:08;;;;;;;0.30;0.30;;;0.10;94.50;;;;;;5054873;28;20728;-70
2023/01/23 00:09:34;;;;;;;0.60;0.60;;;0.10;94.40;;;;;;5054350;28;20504;-68
2023/01/23 00:11:59;;;;;;;0.40;0.40;;;0.10;94.70;;;;;;5054433;28;20170;-70
2023/01/23 00:14:25;;;;;;;0.30;0.30;;;0.00;94.90;;;;;;5054446;28;20166;-72
2023/01/23 00:16:50;;;;;;;0.37;0.37;;;0.00;94.80;;;;;;5054421;28;20174;-71
2023/01/23 00:19:16;;;;;;;0.30;0.30;;;0.10;94.70;;;;;;5054139;28;20206;-71
2023/01/23 00:21:42;;;;;;;0.67;0.67;;;0.00;94.40;;;;;;5054011;28;20174;-72
2023/01/23 00:24:10;;;;;;;0.40;0.40;;;0.10;94.40;;;;;;5054551;28;20181;-69
2023/01/23 00:26:36;;;;;;;0.85;0.85;;;0.20;94.70;;;;;;5054080;28;20566;-69
2023/01/23 00:29:03;;;;;;;0.30;0.30;;;0.30;94.70;;;;;;5053996;28;20195;-71
2023/01/23 00:31:33;;;;;;;0.50;0.50;;;0.30;94.60;;;;;;5054076;28;20410;-70
2023/01/23 00:34:02;;;;;;;0.55;0.55;;;0.20;94.40;;;;;;5052690;28;20256;-69
2023/01/23 00:36:31;;;;;;;1.05;0.77;;;-0.10;94.20;;;;;;5053924;28;20259;-71
2023/01/23 00:38:56;;;;;;;0.35;0.35;;;-0.10;94.50;;;;;;5053871;28;20197;-71
2023/01/23 00:41:23;;;;;;;0.40;0.40;;;0.00;94.50;;;;;;5053959;28;20177;-71
2023/01/23 00:43:50;;;;;;;0.38;0.38;;;0.00;94.50;;;;;;5053677;28;20174;-71
2023/01/23 00:46:17;;;;;;;0.30;0.30;;;0.20;94.30;;;;;;5053908;28;20272;-70
2023/01/23 00:48:42;;;;;;;0.30;0.30;;;0.20;94.00;;;;;;5053618;28;20218;-72
2023/01/23 00:51:08;;;;;;;0.80;0.80;;;0.20;93.70;;;;;;5053741;28;20206;-69
2023/01/23 00:53:33;;;;;;;3.20;1.13;;;0.20;93.50;;;;;;5053581;28;20647;-72
2023/01/23 00:55:59;;;;;;;0.50;0.50;;;0.20;93.30;;;;;;5053722;28;20166;-72
2023/01/23 00:58:25;;;;;;;0.40;0.40;;;0.20;93.20;;;;;;5053662;28;20190;-69
2023/01/23 01:00:50;;;;;;;0.87;0.87;;;0.20;93.30;;;;;;5053600;28;20520;-72
2023/01/23 01:03:16;;;;;;;0.57;0.57;;;0.30;93.40;;;;;;5053388;28;20175;-70
2023/01/23 01:05:42;;;;;;;0.30;0.30;;;0.30;93.40;;;;;;5053485;28;20647;-69
2023/01/23 01:08:08;;;;;;;0.40;0.40;;;0.40;93.40;;;;;;5053481;28;20204;-72
2023/01/23 01:10:35;;;;;;;0.80;0.80;;;0.50;93.30;;;;;;5053664;28;20850;-69
2023/01/23 01:13:02;;;;;;;0.70;0.53;;;0.50;92.80;;;;;;5053308;28;20167;-70
2023/01/23 01:15:28;;;;;;;1.45;1.35;;;0.60;92.90;;;;;;5053526;28;20564;-71
2023/01/23 01:17:54;;;;;;;0.40;0.40;;;0.60;93.00;;;;;;5053642;28;20205;-69
2023/01/23 01:20:24;;;;;;;5.10;2.00;;;0.60;93.00;;;;;;5053238;28;20210;-71
2023/01/23 01:22:51;;;;;;;2.78;1.23;;;0.40;92.50;;;;;;5053280;28;20201;-71
2023/01/23 01:25:17;;;;;;;0.40;0.40;;;0.20;92.00;;;;;;5053343;28;20708;-73
2023/01/23 01:27:42;;;;;;;0.30;0.30;;;0.20;92.30;;;;;;5053503;28;20175;-70
2023/01/23 01:30:08;;;;;;;0.50;0.50;;;0.30;92.40;;;;;;5053149;28;20205;-70
2023/01/23 01:32:42;;;;;;;0.50;0.50;;;0.30;91.60;;;;;;5053401;28;20400;-69
2023/01/23 01:35:08;;;;;;;0.30;0.30;;;0.30;91.90;;;;;;5053474;28;20261;-70
2023/01/23 01:37:36;;;;;;;1.05;1.05;;;0.30;92.20;;;;;;5053278;28;20584;-68
2023/01/23 01:40:04;;;;;;;0.30;0.30;;;0.30;92.10;;;;;;5053137;28;20266;-70
2023/01/23 01:42:29;;;;;;;1.58;1.13;;;0.30;92.10;;;;;;5053020;28;20541;-72
2023/01/23 01:44:58;;;;;;;1.03;0.93;;;0.40;91.90;;;;;;5053093;28;20202;-68
2023/01/23 01:47:24;;;;;;;0.30;0.30;;;0.30;91.30;;;;;;5053168;28;20558;-68
2023/01/23 01:49:54;;;;;;;0.30;0.30;;;0.20;91.30;;;;;;5053189;28;20340;-72
2023/01/23 01:52:22;;;;;;;2.05;1.38;;;0.10;91.80;;;;;;5052968;28;20917;-71
2023/01/23 01:54:47;;;;;;;0.40;0.40;;;0.10;92.60;;;;;;5054450;28;20174;-71
2023/01/23 01:57:20;;;;;;;0.40;0.40;;;0.10;92.10;;;;;;5057121;28;20519;-69
2023/01/23 01:59:49;;;;;;;0.60;0.60;;;0.10;92.10;;;;;;5057071;28;20270;-68
2023/01/23 02:02:23;;;;;;;0.30;0.30;;;0.10;92.10;;;;;;5056661;28;20232;-69
2023/01/23 02:04:56;;;;;;;0.40;0.40;;;0.20;92.10;;;;;;5056888;28;20624;-72
2023/01/23 02:07:32;;;;;;;1.25;1.25;;;0.10;91.90;;;;;;5057049;28;20556;-70
2023/01/23 02:09:59;;;;;;;0.30;0.30;;;0.10;91.60;;;;;;5056691;28;20242;-72
2023/01/23 02:12:25;;;;;;;1.30;1.30;;;0.10;92.00;;;;;;5055186;28;20539;-70
2023/01/23 02:14:52;;;;;;;0.40;0.40;;;0.10;92.50;;;;;;5056706;28;20662;-70
2023/01/23 02:17:18;;;;;;;0.40;0.40;;;0.10;92.40;;;;;;5056740;28;20686;-68
2023/01/23 02:20:16;;;;;;;0.30;0.30;;;0.10;92.00;;;;;;5056338;28;20205;-70
2023/01/23 02:23:04;;;;;;;0.35;0.35;;;0.10;92.10;;;;;;5056378;28;20178;-71
2023/01/23 02:25:41;;;;;;;1.90;1.80;;;0.20;91.70;;;;;;5056647;28;20194;-69
2023/01/23 02:28:08;;;;;;;0.38;0.38;;;-0.10;92.20;;;;;;5056491;28;20311;-70
2023/01/23 02:30:35;;;;;;;0.30;0.30;;;-0.60;92.20;;;;;;5056293;28;20177;-70
2023/01/23 02:33:19;;;;;;;0.45;0.45;;;-0.70;92.90;;;;;;5056223;28;20208;-71
2023/01/23 02:35:45;;;;;;;0.30;0.30;;;-0.50;93.20;;;;;;5056315;28;20713;-72
2023/01/23 02:38:11;;;;;;;0.30;0.30;;;-0.20;92.80;;;;;;5056212;28;20186;-70
2023/01/23 02:40:39;;;;;;;0.40;0.40;;;-0.20;92.50;;;;;;5056199;28;20996;-69
2023/01/23 02:43:09;;;;;;;0.40;0.40;;;-0.10;92.10;;;;;;5055959;28;20228;-68
2023/01/23 02:45:35;;;;;;;0.32;0.32;;;-0.10;91.70;;;;;;5056191;28;20248;-71
2023/01/23 02:48:01;;;;;;;0.50;0.50;;;-0.10;91.70;;;;;;5055966;28;20174;-71
2023/01/23 02:50:28;;;;;;;2.15;0.75;;;-0.10;92.00;;;;;;5056147;28;20498;-69
2023/01/23 02:52:54;;;;;;;0.50;0.50;;;-0.10;92.20;;;;;;5055735;28;20170;-68
2023/01/23 02:55:20;;;;;;;0.50;0.50;;;-0.20;91.60;;;;;;5056036;28;20265;-73
2023/01/23 02:57:46;;;;;;;0.47;0.47;;;-0.10;91.40;;;;;;5055930;28;20492;-69
2023/01/23 03:00:15;;;;;;;0.30;0.30;;;-0.10;91.60;;;;;;5055671;28;20289;-68
2023/01/23 03:02:42;;;;;;;0.50;0.50;;;-0.20;91.20;;;;;;5055726;28;20182;-70
2023/01/23 03:05:08;;;;;;;0.40;0.40;;;-0.10;91.60;;;;;;5054368;28;20209;-71
2023/01/23 03:07:34;;;;;;;0.30;0.30;;;-0.10;91.80;;;;;;5054379;28;20227;-69
2023/01/23 03:10:01;;;;;;;0.40;0.40;;;-0.30;91.80;;;;;;5055708;28;20194;-71
2023/01/23 03:12:26;;;;;;;0.40;0.40;;;-0.60;91.60;;;;;;5055360;28;20179;-69
2023/01/23 03:14:53;;;;;;;0.40;0.40;;;-0.50;92.10;;;;;;5055537;28;20169;-71
2023/01/23 03:17:20;;;;;;;0.30;0.30;;;-0.50;92.50;;;;;;5054245;28;20173;-72
2023/01/23 03:19:46;;;;;;;0.50;0.50;;;-0.40;92.30;;;;;;5055221;28;20210;-69
2023/01/23 03:22:11;;;;;;;0.30;0.30;;;-0.20;92.20;;;;;;5055262;28;20220;-70
2023/01/23 03:24:38;;;;;;;0.40;0.40;;;-0.10;91.60;;;;;;5055343;28;20686;-71
2023/01/23 03:27:03;;;;;;;0.30;0.30;;;-0.10;91.20;;;;;;5055248;28;20198;-71
2023/01/23 03:32:15;;;;;;;0.93;0.93;;;-0.10;91.20;;;;;;5055428;28;20807;-70
2023/01/23 03:34:40;;;;;;;0.40;0.40;;;0.00;90.90;;;;;;5055246;28;20178;-71
2023/01/23 03:37:07;;;;;;;0.40;0.40;;;0.00;90.90;;;;;;5055218;28;20173;-70
2023/01/23 03:42:18;;;;;;;0.80;0.80;;;-0.40;91.50;;;;;;5054874;28;20172;-69
2023/01/23 03:44:44;;;;;;;0.40;0.40;;;-0.40;92.20;;;;;;5055015;28;20245;-72
2023/01/23 03:47:09;;;;;;;0.30;0.30;;;-0.20;92.10;;;;;;5055054;28;20170;-68
2023/01/23 03:49:35;;;;;;;0.40;0.40;;;-0.30;92.00;;;;;;5054985;28;20193;-72
2023/01/23 03:52:01;;;;;;;0.30;0.30;;;-0.30;92.30;;;;;;5054623;28;20474;-72
2023/01/23 03:54:27;;;;;;;0.80;0.80;;;-0.30;92.60;;;;;;5054983;28;20212;-70
2023/01/23 03:56:53;;;;;;;2.15;1.85;;;-0.30;92.80;;;;;;5055016;28;20428;-71
2023/01/23 03:59:19;;;;;;;1.00;1.00;;;-0.40;92.80;;;;;;5054896;28;20198;-69
2023/01/23 04:01:46;;;;;;;0.40;0.40;;;-0.30;92.90;;;;;;5054468;28;20224;-70
2023/01/23 04:04:12;;;;;;;0.70;0.70;;;-0.50;93.10;;;;;;5054736;28;20173;-69
2023/01/23 04:06:38;;;;;;;0.55;0.55;;;-0.40;93.10;;;;;;5054608;28;20197;-69
2023/01/23 04:09:04;;;;;;;0.40;0.40;;;-0.40;93.30;;;;;;5054369;28;20655;-69
2023/01/23 04:11:29;;;;;;;0.50;0.50;;;-0.60;93.30;;;;;;5054507;28;20232;-68
2023/01/23 04:13:55;;;;;;;0.50;0.50;;;-0.90;93.70;;;;;;5054273;28;20411;-71
2023/01/23 04:16:22;;;;;;;1.13;1.13;;;-0.80;94.20;;;;;;5054501;28;20405;-70
2023/01/23 04:18:49;;;;;;;0.38;0.38;;;-0.90;94.10;;;;;;5053756;28;20288;-71
2023/01/23 04:21:14;;;;;;;1.02;1.02;;;-0.90;94.70;;;;;;5054693;28;20182;-72
2023/01/23 04:23:40;;;;;;;2.63;1.17;;;-0.90;94.80;;;;;;5054105;28;20257;-70
2023/01/23 04:26:06;;;;;;;0.70;0.70;;;-0.70;94.50;;;;;;5054302;28;20659;-69
2023/01/23 04:28:31;;;;;;;0.40;0.40;;;-0.50;94.00;;;;;;5054162;28;20216;-72
2023/01/23 04:30:57;;;;;;;0.30;0.30;;;-0.70;94.20;;;;;;5054084;28;20198;-71
2023/01/23 04:33:23;;;;;;;0.30;0.30;;;-0.80;94.40;;;;;;5053817;28;20913;-70
2023/01/23 04:35:53;;;;;;;0.40;0.40;;;-0.70;94.60;;;;;;5053882;28;20528;-72
2023/01/23 04:38:19;;;;;;;0.30;0.30;;;-0.50;94.80;;;;;;5054116;28;20238;-68
2023/01/23 04:40:46;;;;;;;2.30;2.00;;;-0.50;94.30;;;;;;5053908;28;20169;-70
2023/01/23 04:43:11;;;;;;;0.40;0.40;;;-0.40;94.00;;;;;;5053827;28;20510;-71
2023/01/23 04:45:37;;;;;;;0.50;0.50;;;-0.40;93.70;;;;;;5053033;28;20340;-71
2023/01/23 04:48:03;;;;;;;0.40;0.40;;;-0.30;93.70;;;;;;5053860;28;20178;-69
2023/01/23 04:50:28;;;;;;;0.60;0.60;;;-0.40;93.80;;;;;;5053721;28;20178;-69
2023/01/23 04:52:54;;;;;;;1.30;0.93;;;-0.40;93.80;;;;;;5053571;28;20479;-68
2023/01/23 04:55:20;;;;;;;0.63;0.63;;;-0.40;93.70;;;;;;5053600;28;20182;-71
2023/01/23 04:57:45;;;;;;;0.43;0.43;;;-0.30;93.60;;;;;;5053794;28;20174;-69
2023/01/23 05:00:12;;;;;;;0.50;0.50;;;-0.30;93.50;;;;;;5053557;28;20606;-72
2023/01/23 05:02:38;;;;;;;0.57;0.57;;;-0.40;93.40;;;;;;5053472;28;20701;-71
2023/01/23 05:05:04;;;;;;;0.73;0.73;;;-0.60;93.70;;;;;;5052205;28;20214;-72
2023/01/23 05:07:30;;;;;;;0.30;0.30;;;-0.90;94.40;;;;;;5053555;28;20162;-72
2023/01/23 05:09:55;;;;;;;0.30;0.30;;;-1.00;95.60;;;;;;5053415;28;20192;-72
2023/01/23 05:12:21;;;;;;;3.17;0.70;;;-1.10;95.30;;;;;;5053408;28;20599;-72
2023/01/23 05:14:46;;;;;;;0.50;0.50;;;-1.00;95.60;;;;;;5053652;28;20162;-71
2023/01/23 05:17:12;;;;;;;0.30;0.30;;;-0.90;95.60;;;;;;5053535;28;20170;-69
2023/01/23 05:19:38;;;;;;;0.40;0.40;;;-0.80;95.70;;;;;;5053194;28;20201;-69
2023/01/23 05:22:03;;;;;;;1.03;1.03;;;-0.60;95.40;;;;;;5053181;28;20170;-68
2023/01/23 05:24:29;;;;;;;1.23;1.13;;;-0.60;94.80;;;;;;5053579;28;20744;-70
2023/01/23 05:26:54;;;;;;;0.33;0.33;;;-0.50;95.00;;;;;;5053353;28;20194;-71
2023/01/23 05:29:20;;;;;;;0.30;0.30;;;-0.40;94.70;;;;;;5053797;28;20186;-70
2023/01/23 05:31:46;;;;;;;0.30;0.30;;;-0.40;94.30;;;;;;5057244;28;20220;-71
2023/01/23 05:34:11;;;;;;;0.30;0.30;;;-0.40;93.90;;;;;;5057404;28;20169;-68
2023/01/23 05:36:37;;;;;;;0.30;0.30;;;-0.50;93.70;;;;;;5057565;28;20174;-72
2023/01/23 05:39:03;;;;;;;0.30;0.30;;;-0.60;93.60;;;;;;5057316;28;20194;-69
2023/01/23 05:41:28;;;;;;;1.10;1.10;;;-0.70;94.00;;;;;;5057255;28;20197;-72
2023/01/23 05:43:54;;;;;;;0.40;0.40;;;-0.70;94.10;;;;;;5057218;28;20409;-70
2023/01/23 05:46:19;;;;;;;0.70;0.70;;;-0.70;93.60;;;;;;5057194;28;20536;-70
2023/01/23 05:48:49;;;;;;;0.77;0.77;;;-0.70;93.60;;;;;;5057075;28;20639;-71
2023/01/23 05:51:14;;;;;;;0.40;0.40;;;-0.60;93.20;;;;;;5056956;28;20538;-71
2023/01/23 05:53:40;;;;;;;0.40;0.40;;;-0.60;92.80;;;;;;5056700;28;20176;-72
2023/01/23 05:56:07;;;;;;;0.50;0.50;;;-0.60;92.70;;;;;;5056927;28;20170;-68
2023/01/23 05:58:33;;;;;;;1.83;1.33;;;-0.60;92.90;;;;;;5057045;28;20601;-71
2023/01/23 06:00:58;;;;;;;1.90;1.07;;;-0.70;92.90;;;;;;5056870;28;20249;-69
2023/01/23 06:03:24;;;;;;;0.30;0.30;;;-0.70;93.20;;;;;;5056722;28;20241;-70
2023/01/23 06:05:50;;;;;;;0.30;0.30;;;-0.80;92.90;;;;;;5056978;28;20206;-68
2023/01/23 06:08:15;;;;;;;0.30;0.30;;;-0.80;92.90;;;;;;5057033;28;20190;-69
2023/01/23 06:10:41;;;;;;;0.30;0.30;;;-0.80;92.60;;;;;;5055463;28;20704;-70
2023/01/23 06:13:07;;;;;;;1.03;1.03;;;-0.80;92.60;;;;;;5056499;28;20166;-69
2023/01/23 06:15:32;;;;;;;0.80;0.80;;;-0.90;92.80;;;;;;5056757;28;20535;-72
2023/01/23 06:17:58;;;;;;;0.93;0.93;;;-1.10;92.40;;;;;;5056525;28;20649;-72
2023/01/23 06:20:24;;;;;;;0.40;0.40;;;-1.30;92.60;;;;;;5056453;28;20264;-68
2023/01/23 06:22:49;;;;;;;0.40;0.40;;;-1.50;92.80;;;;;;5056589;28;20170;-70
2023/01/23 06:25:17;;;;;;;0.40;0.40;;;-1.40;93.40;;;;;;5056550;28;20194;-70
2023/01/23 06:27:42;;;;;;;0.30;0.30;;;-1.50;93.60;;;;;;5056594;28;20673;-68
2023/01/23 06:30:09;;;;;;;0.70;0.70;;;-1.40;93.20;;;;;;5056239;28;20202;-72
2023/01/23 06:32:34;;;;;;;0.30;0.30;;;-1.30;93.00;;;;;;5056054;28;20249;-69
2023/01/23 06:35:01;;;;;;;0.97;0.97;;;-1.60;93.30;;;;;;5056314;28;20220;-71
2023/01/23 06:37:26;;;;;;;0.30;0.30;;;-1.70;93.70;;;;;;5055054;28;20170;-70
2023/01/23 06:39:52;;;;;;;0.50;0.50;;;-1.60;94.10;;;;;;5056093;28;20258;-69
2023/01/23 06:42:17;;;;;;;0.40;0.40;;;-1.70;94.00;;;;;;5054586;28;20174;-71
2023/01/23 06:44:43;;;;;;;1.00;1.00;;;-1.50;93.90;;;;;;5056156;28;20178;-71
2023/01/23 06:47:09;;;;;;;0.50;0.50;;;-1.30;93.70;;;;;;5056257;28;20162;-71
2023/01/23 06:49:35;;;;;;;0.40;0.40;;;-1.40;93.40;;;;;;5055936;28;20929;-70
2023/01/23 06:52:00;;;;;;;1.53;1.43;;;-1.50;93.30;;;;;;5056006;28;20171;-71
2023/01/23 06:54:26;;;;;;;0.30;0.30;;;-1.40;93.50;;;;;;5055915;28;20171;-71
2023/01/23 06:56:52;;;;;;;0.40;0.40;;;-1.40;93.80;;;;;;5056033;28;20181;-70
2023/01/23 06:59:17;;;;;;;1.27;1.27;;;-1.40;93.50;;;;;;5055791;28;20580;-70
2023/01/23 07:01:43;;;;;;;0.87;0.70;;;-1.20;93.70;;;;;;5055692;28;20870;-70
2023/01/23 07:04:08;;;;;;;0.90;0.90;;;-1.40;94.10;;;;;;5055760;28;20166;-69
2023/01/23 07:06:34;;;;;;;0.40;0.40;;;-1.50;94.40;;;;;;5055690;28;20198;-68
2023/01/23 07:09:00;;;;;;;0.40;0.40;;;-1.40;94.20;;;;;;5055681;28;20193;-72
2023/01/23 07:11:26;;;;;;;0.40;0.40;;;-1.50;94.50;;;;;;5054321;28;20202;-70
2023/01/23 07:13:51;;;;;;;0.57;0.57;;;-1.50;94.40;;;;;;5055533;28;20163;-70
2023/01/23 07:16:17;;;;;;;0.40;0.40;;;-1.40;94.40;;;;;;5055491;28;20496;-69
2023/01/23 07:18:42;;;;;;;2.47;2.27;;;-1.30;94.50;;;;;;5055170;28;20205;-69
2023/01/23 07:21:08;;;;;;;1.23;1.23;;;-1.10;94.40;;;;;;5055420;28;20170;-71
2023/01/23 07:23:34;;;;;;;0.43;0.43;;;-1.00;93.80;;;;;;5055408;28;20590;-71
2023/01/23 07:26:02;;;;;;;0.63;0.63;;;-0.90;93.20;;;;;;5055464;28;20324;-72
2023/01/23 07:28:28;;;;;;;0.30;0.30;;;-1.10;93.50;;;;;;5055361;28;20186;-69
2023/01/23 07:30:54;;;;;;;2.00;1.90;;;-1.20;93.70;;;;;;5055211;28;20166;-70
2023/01/23 07:33:20;;;;;;;0.40;0.40;;;-1.10;93.00;;;;;;5055227;28;20170;-71
2023/01/23 07:35:45;;;;;;;0.73;0.73;;;-1.10;93.10;;;;;;5055257;28;20167;-69
2023/01/23 07:38:11;;;;;;;0.60;0.60;;;-1.10;93.00;;;;;;5055140;28;20563;-70
2023/01/23 07:40:37;;;;;;;1.90;1.80;;;-1.00;93.40;;;;;;5055022;28;20181;-70
2023/01/23 07:43:04;;;;;;;1.02;1.02;;;-1.20;93.60;;;;;;5054808;28;20166;-72
2023/01/23 07:45:30;;;;;;;0.90;0.90;;;-1.10;93.90;;;;;;5054812;28;20214;-71
2023/01/23 07:47:55;;;;;;;0.40;0.40;;;-1.00;93.60;;;;;;5055314;28;20170;-69
2023/01/23 07:50:21;;;;;;;0.97;0.97;;;-0.80;93.30;;;;;;5054762;28;20471;-70
2023/01/23 07:52:47;;;;;;;0.40;0.40;;;-0.80;92.80;;;;;;5054073;28;20278;-70
2023/01/23 07:55:12;;;;;;;0.40;0.40;;;-0.80;92.90;;;;;;5054940;28;20166;-69
2023/01/23 07:57:38;;;;;;;0.30;0.30;;;-0.70;92.80;;;;;;5054885;28;20174;-70
2023/01/23 08:00:04;;;;;;;0.40;0.40;;;-0.90;93.00;;;;;;5055029;28;20197;-68
2023/01/23 08:02:30;;;;;;;0.47;0.47;;;-1.00;93.30;;;;;;5054506;28;20174;-71
2023/01/23 08:04:55;;;;;;;0.40;0.40;;;-0.80;93.70;;;;;;5054709;28;20200;-71
2023/01/23 08:07:22;;;;;;;0.30;0.30;;;-0.90;93.20;;;;;;5054740;28;20519;-69
2023/01/23 08:09:48;;;;;;;0.40;0.40;;;-1.00;92.90;;;;;;5054616;28;20263;-69
2023/01/23 08:12:14;;;;;;;0.40;0.40;;;-1.00;93.00;;;;;;5054099;28;20616;-71
2023/01/23 08:14:40;;;;;;;0.37;0.37;;;-1.00;93.30;;;;;;5054333;28;20171;-71
2023/01/23 08:17:05;;;;;;;0.30;0.30;;;-1.00;93.00;;;;;;5054514;28;20504;-69
2023/01/23 08:19:31;;;;;;;0.30;0.30;;;-0.90;92.90;;;;;;5053985;28;20578;-72
2023/01/23 08:21:56;;;;;;;0.87;0.87;;;-0.80;92.60;;;;;;5054106;28;20167;-71
2023/01/23 08:24:22;;;;;;;0.30;0.30;;;-0.80;92.70;;;;;;5054377;28;20619;-69
2023/01/23 08:26:48;;;;;;;0.60;0.60;;;-0.70;93.20;;;;;;5054148;28;20232;-72
2023/01/23 08:29:13;;;;;;;0.40;0.40;;;-0.60;92.60;;;;;;5052625;28;20190;-72
2023/01/23 08:31:39;;;;;;;0.50;0.50;;;-1.00;92.50;;;;;;5053922;28;20174;-69
2023/01/23 08:34:04;;;;;;;0.60;0.60;;;-0.90;92.90;;;;;;5054147;28;20176;-73
2023/01/23 08:36:30;;;;;;;0.40;0.40;;;-0.80;92.50;;;;;;5054075;28;20258;-71
2023/01/23 08:38:56;;;;;;;0.30;0.30;;;-0.80;92.50;;;;;;5053939;28;20219;-71
2023/01/23 08:41:22;;;;;;;0.30;0.30;;;-0.80;92.60;;;;;;5053812;28;20177;-69
2023/01/23 08:43:48;;;;;;;0.30;0.30;;;-0.90;92.20;;;;;;5053691;28;20166;-71
2023/01/23 08:46:14;;;;;;;0.40;0.40;;;-0.80;92.50;;;;;;5053772;28;20198;-71
2023/01/23 08:48:40;;;;;;;0.40;0.40;;;-0.80;92.40;;;;;;5053805;28;20186;-70
2023/01/23 08:51:09;;;;;;;0.30;0.30;;;-0.90;92.60;;;;;;5053825;28;20177;-70
2023/01/23 08:53:35;;;;;;;0.40;0.40;;;-0.90;92.50;;;;;;5053528;28;20409;-72
2023/01/23 08:56:03;;;;;;;0.40;0.40;;;-1.00;92.70;;;;;;5053795;28;20647;-68
2023/01/23 08:58:29;;;;;;;0.30;0.30;;;-1.10;93.20;;;;;;5053391;28;20226;-71
2023/01/23 09:00:55;;;;;;;0.30;0.30;;;-1.30;93.40;;;;;;5053626;28;20643;-71
2023/01/23 09:03:21;;;;;;;0.30;0.30;;;-1.10;93.40;;;;;;5053413;28;20409;-68
2023/01/23 09:05:47;;;;;;;0.37;0.37;;;-1.00;93.20;;;;;;5053542;28;20498;-71
2023/01/23 09:08:13;;;;;;;0.40;0.40;;;-1.10;93.20;;;;;;5053439;28;20538;-69
2023/01/23 09:10:38;;;;;;;1.50;1.23;;;-1.10;93.60;;;;;;5053330;28;20397;-71
2023/01/23 09:13:04;;;;;;;0.40;0.40;;;-0.90;93.60;;;;;;5053324;28;20178;-71
2023/01/23 09:15:30;;;;;;;0.40;0.40;;;-1.00;93.30;;;;;;5052253;28;20597;-72
2023/01/23 09:17:56;;;;;;;0.68;0.68;;;-1.50;94.30;;;;;;5053536;28;20201;-71
2023/01/23 09:20:24;;;;;;;0.40;0.40;;;-1.60;94.80;;;;;;5053772;28;20252;-71
2023/01/23 09:22:51;;;;;;;0.40;0.40;;;-1.50;95.30;;;;;;5053259;28;20417;-71
2023/01/23 09:25:17;;;;;;;0.30;0.30;;;-1.20;95.40;;;;;;5053192;28;20244;-71
2023/01/23 09:27:43;;;;;;;0.40;0.40;;;-1.30;95.10;;;;;;5053312;28;20170;-71
2023/01/23 09:30:09;;;;;;;0.30;0.30;;;-1.40;95.10;;;;;;5052001;28;20674;-71
2023/01/23 09:32:34;;;;;;;0.40;0.40;;;-1.50;95.50;;;;;;5053337;28;20163;-71
2023/01/23 09:35:00;;;;;;;1.00;0.60;;;-1.20;95.40;;;;;;5053402;28;20174;-71
2023/01/23 09:37:28;;;;;;;0.50;0.50;;;-1.30;95.10;;;;;;5053417;28;20212;-71
2023/01/23 09:39:54;;;;;;;0.40;0.40;;;-1.30;95.90;;;;;;5053217;28;20567;-71
2023/01/23 09:42:28;;;;;;;0.50;0.50;;;-1.00;95.90;;;;;;5053225;28;20177;-69
2023/01/23 09:44:59;;;;;;;1.05;1.05;;;-0.90;95.30;;;;;;5053202;28;20181;-68
2023/01/23 09:47:47;;;;;;;0.30;0.30;;;-0.90;95.80;;;;;;5053323;28;20181;-71
2023/01/23 09:50:42;;;;;;;0.30;0.30;;;-1.10;95.80;;;;;;5053270;28;20209;-71
2023/01/23 09:53:14;;;;;;;0.40;0.40;;;-0.90;96.00;;;;;;5052404;28;20178;-71
2023/01/23 09:55:49;;;;;;;3.35;1.48;;;-0.70;95.30;;;;;;5053394;28;20193;-70
2023/01/23 09:58:25;;;;;;;2.70;2.50;;;-0.50;95.00;;;;;;5053222;28;20198;-71
2023/01/23 10:00:51;;;;;;;0.40;0.40;;;-0.20;94.40;;;;;;5053266;28;20204;-72
2023/01/23 10:03:16;;;;;;;0.40;0.40;;;-0.40;93.70;;;;;;5053068;28;20544;-70
2023/01/23 10:05:51;;;;;;;0.30;0.30;;;-0.40;93.90;;;;;;5053139;28;20440;-71
2023/01/23 10:08:28;;;;;;;0.40;0.40;;;-0.60;94.10;;;;;;5052990;28;20400;-69
2023/01/23 10:10:53;;;;;;;0.52;0.52;;;-0.50;94.80;;;;;;5052934;28;20565;-72
2023/01/23 10:13:47;;;;;;;0.40;0.40;;;-0.50;94.60;;;;;;5052800;28;20166;-69
2023/01/23 10:16:22;;;;;;;0.30;0.30;;;-0.40;94.40;;;;;;5054865;28;20171;-69
2023/01/23 10:19:16;;;;;;;0.93;0.93;;;-0.30;94.40;;;;;;5056664;28;20272;-69
2023/01/23 10:21:52;;;;;;;0.30;0.30;;;-0.20;94.20;;;;;;5056594;28;20233;-71
2023/01/23 10:24:46;;;;;;;1.35;1.25;;;-0.20;93.60;;;;;;5056728;28;20178;-70
2023/01/23 10:27:21;;;;;;;0.30;0.30;;;-0.50;94.00;;;;;;5056587;28;20202;-70
2023/01/23 10:29:56;;;;;;;0.30;0.30;;;-0.40;94.40;;;;;;5056340;28;20604;-69
2023/01/23 10:32:35;;;;;;;0.40;0.40;;;-0.40;94.30;;;;;;5056408;28;20190;-71
2023/01/23 10:35:36;;;;;;;0.40;0.40;;;-0.40;94.70;;;;;;5056429;28;20577;-70
2023/01/23 10:38:38;;;;;;;0.30;0.30;;;-0.50;95.00;;;;;;5049010;28;20566;-71
2023/01/23 10:41:16;;;;;;;0.50;0.50;;;-0.70;95.10;;;;;;5044872;28;20540;-69
2023/01/23 10:43:48;;;;;;;0.30;0.30;;;-0.80;95.90;;;;;;5056165;28;20163;-70
2023/01/23 10:46:17;;;;;;;0.40;0.40;;;-0.70;95.70;;;;;;5056201;28;20204;-71
2023/01/23 10:48:52;;;;;;;0.40;0.40;;;-1.10;96.00;;;;;;5056271;28;20599;-72
2023/01/23 10:51:38;;;;;;;1.15;1.05;;;-0.90;96.20;;;;;;5056229;28;20201;-70
2023/01/23 10:54:16;;;;;;;0.40;0.40;;;-0.60;96.10;;;;;;5056076;28;20253;-71
2023/01/23 10:56:50;;;;;;;2.47;2.38;;;-0.70;95.90;;;;;;5054815;28;20639;-71
2023/01/23 10:59:34;;;;;;;2.38;1.10;;;-0.80;96.20;;;;;;5055883;28;20194;-71
2023/01/23 11:02:11;;;;;;;0.60;0.60;;;-0.70;95.90;;;;;;5055614;28;20692;-70
2023/01/23 11:04:38;;;;;;;0.30;0.30;;;-0.80;96.10;;;;;;5055892;28;20170;-70
2023/01/23 11:07:08;;;;;;;0.30;0.30;;;-0.70;96.30;;;;;;5055796;28;20251;-69
2023/01/23 11:09:46;;;;;;;0.30;0.30;;;-0.70;96.20;;;;;;5055744;28;20186;-70
2023/01/23 11:12:34;;;;;;;1.77;0.95;;;-0.70;96.30;;;;;;5055456;28;20166;-71
2023/01/23 11:15:27;;;;;;;0.30;0.30;;;-0.40;96.30;;;;;;5055311;28;20647;-72
2023/01/23 11:17:56;;;;;;;0.77;0.77;;;-0.20;95.40;;;;;;5054439;28;20231;-70
2023/01/23 11:20:27;;;;;;;0.40;0.40;;;-0.30;95.10;;;;;;5055283;28;20202;-68
2023/01/23 11:23:17;;;;;;;0.40;0.40;;;-0.50;95.50;;;;;;5055357;28;20201;-69
2023/01/23 11:25:44;;;;;;;0.30;0.30;;;-0.40;95.90;;;;;;5055522;28;20341;-71
2023/01/23 11:28:32;;;;;;;0.82;0.82;;;-0.10;95.60;;;;;;5054220;28;20215;-67
2023/01/23 11:31:12;;;;;;;0.30;0.30;;;0.10;95.00;;;;;;5055613;28;20166;-70
2023/01/23 11:33:41;;;;;;;1.15;0.73;;;0.20;94.80;;;;;;5055284;28;20243;-70
2023/01/23 11:36:06;;;;;;;1.40;1.02;;;0.10;94.80;;;;;;5055379;28;20310;-69
2023/01/23 11:38:40;;;;;;;3.37;1.10;;;-0.10;95.10;;;;;;5053966;28;20291;-69
2023/01/23 11:41:10;;;;;;;0.75;0.75;;;-0.30;95.80;;;;;;5055306;28;20219;-70
2023/01/23 11:43:37;;;;;;;0.30;0.30;;;-0.20;95.90;;;;;;5055281;28;20227;-70
2023/01/23 11:46:17;;;;;;;1.25;1.15;;;0.10;95.30;;;;;;5054846;28;20273;-70
2023/01/23 11:49:16;;;;;;;0.40;0.40;;;0.30;94.80;;;;;;5055061;28;20182;-69
2023/01/23 11:52:09;;;;;;;0.30;0.30;;;0.50;95.00;;;;;;5053487;28;20193;-71
2023/01/23 11:55:02;;;;;;;1.05;1.05;;;0.60;94.10;;;;;;5054943;28;20212;-71
2023/01/23 11:57:50;;;;;;;1.02;1.02;;;0.60;93.90;;;;;;5055139;28;20166;-70
2023/01/23 12:00:41;;;;;;;0.65;0.65;;;0.50;94.10;;;;;;5054651;28;20186;-70
2023/01/23 12:03:40;;;;;;;0.50;0.50;;;0.30;94.80;;;;;;5054423;28;20187;-70
2023/01/23 12:06:08;;;;;;;0.40;0.40;;;0.20;95.20;;;;;;5054537;28;20255;-71
2023/01/23 12:08:59;;;;;;;1.30;1.23;;;0.30;95.30;;;;;;5054532;28;20186;-70
2023/01/23 12:11:31;;;;;;;0.40;0.40;;;0.50;94.90;;;;;;5054555;28;20159;-70
2023/01/23 12:13:57;;;;;;;0.35;0.35;;;0.50;94.60;;;;;;5054375;28;20178;-69
2023/01/23 12:16:25;;;;;;;2.67;2.33;;;0.20;95.50;;;;;;5054547;28;20178;-69
2023/01/23 12:18:51;;;;;;;0.30;0.30;;;-0.10;96.60;;;;;;5054223;28;20210;-71
2023/01/23 12:21:18;;;;;;;0.30;0.30;;;0.10;96.90;;;;;;5054349;28;20250;-71
2023/01/23 12:23:55;;;;;;;1.40;1.40;;;0.50;96.70;;;;;;5052924;28;20175;-70
2023/01/23 12:26:23;;;;;;;0.82;0.77;;;0.50;95.30;;;;;;5054245;28;20595;-69
2023/01/23 12:29:25;;;;;;;0.40;0.40;;;0.30;95.30;;;;;;5054090;28;20190;-71
2023/01/23 12:32:26;;;;;;;0.30;0.30;;;0.50;96.00;;;;;;5054125;28;20526;-68
2023/01/23 12:35:15;;;;;;;0.30;0.30;;;0.70;95.20;;;;;;5042331;28;20658;-70
2023/01/23 12:37:55;;;;;;;0.38;0.38;;;0.80;95.00;;;;;;5053928;28;20228;-71
2023/01/23 12:40:31;;;;;;;0.70;0.70;;;0.80;95.00;;;;;;5052391;28;20186;-69
2023/01/23 12:43:14;;;;;;;0.60;0.60;;;0.80;95.10;;;;;;5051769;28;20217;-70
2023/01/23 12:45:50;;;;;;;1.05;1.05;;;0.80;94.70;;;;;;5053533;28;20584;-69
2023/01/23 12:48:23;;;;;;;0.57;0.57;;;0.80;94.90;;;;;;5051140;28;20228;-70
2023/01/23 12:51:11;;;;;;;6.43;1.30;;;0.90;95.30;;;;;;5053526;28;20174;-71
2023/01/23 12:53:40;;;;;;;0.60;0.60;;;0.70;95.20;;;;;;5052999;28;20202;-69
2023/01/23 12:56:18;;;;;;;0.40;0.40;;;0.60;96.00;;;;;;5053662;28;20167;-69
2023/01/23 12:58:55;;;;;;;0.35;0.35;;;0.70;96.20;;;;;;5053207;28;20190;-68
2023/01/23 13:01:51;;;;;;;1.02;1.02;;;0.90;95.90;;;;;;5054175;28;20198;-69
2023/01/23 13:04:26;;;;;;;0.40;0.40;;;1.00;95.40;;;;;;5054204;28;20156;-71
2023/01/23 13:07:00;;;;;;;0.45;0.45;;;0.90;95.40;;;;;;5052253;28;20613;-71
2023/01/23 13:10:07;;;;;;;2.15;2.05;;;1.00;95.50;;;;;;5053103;28;20201;-71